createdAt,value
2022-09-17T00:05:04.706Z,20.90
2022-09-17T00:11:29.403Z,20.80
2022-09-17T00:17:31.671Z,20.80
2022-09-17T00:23:33.854Z,20.70
2022-09-17T00:29:36.296Z,20.70
2022-09-17T00:35:38.323Z,20.70
2022-09-17T00:41:40.528Z,20.60
2022-09-17T00:47:46.819Z,20.60
2022-09-17T00:53:49.226Z,20.60
2022-09-17T00:59:51.549Z,20.50
2022-09-17T01:06:02.643Z,20.40
2022-09-17T01:12:04.816Z,20.30
2022-09-17T01:18:48.673Z,20.30
2022-09-17T01:25:29.154Z,20.20
2022-09-17T01:31:40.451Z,20.10
2022-09-17T01:38:09.862Z,20.00
2022-09-17T01:44:20.745Z,19.90
2022-09-17T01:50:33.953Z,19.90
2022-09-17T01:56:40.963Z,19.90
2022-09-17T02:03:07.466Z,20.00
2022-09-17T02:09:30.299Z,19.80
2022-09-17T02:15:40.414Z,19.90
2022-09-17T02:21:57.602Z,19.80
2022-09-17T02:28:15.929Z,19.80
2022-09-17T02:34:18.763Z,19.70
2022-09-17T02:40:28.078Z,19.80
2022-09-17T02:46:33.272Z,19.70
2022-09-17T02:52:58.880Z,19.80
2022-09-17T02:59:06.018Z,19.80
2022-09-17T03:05:08.861Z,19.80
2022-09-17T03:11:13.102Z,19.80
2022-09-17T03:17:15.457Z,19.80
2022-09-17T03:23:17.485Z,19.70
2022-09-17T03:29:19.587Z,19.60
2022-09-17T03:35:21.756Z,19.70
2022-09-17T03:41:24.579Z,19.70
2022-09-17T03:47:29.650Z,19.70
2022-09-17T03:53:32.167Z,19.70
2022-09-17T03:59:34.222Z,19.70
2022-09-17T04:05:36.550Z,19.70
2022-09-17T04:11:39.065Z,19.80
2022-09-17T04:17:41.444Z,19.80
2022-09-17T04:23:43.484Z,19.90
2022-09-17T04:29:45.752Z,19.90
2022-09-17T04:35:48.287Z,20.10
2022-09-17T04:41:50.082Z,21.00
2022-09-17T04:47:52.377Z,22.50
2022-09-17T04:53:54.604Z,25.00
2022-09-17T04:59:56.747Z,25.70
2022-09-17T05:05:58.957Z,28.90
2022-09-17T05:12:01.175Z,29.80
2022-09-17T05:18:03.704Z,29.60
2022-09-17T05:24:05.906Z,29.90
2022-09-17T05:30:09.205Z,30.40
2022-09-17T05:36:11.287Z,28.90
2022-09-17T05:42:13.443Z,29.80
2022-09-17T05:48:16.388Z,29.70
2022-09-17T05:54:18.495Z,29.10
2022-09-17T06:00:20.882Z,28.60
2022-09-17T06:06:23.432Z,27.70
2022-09-17T06:12:25.905Z,26.70
2022-09-17T06:18:31.498Z,26.40
2022-09-17T06:24:33.762Z,26.40
2022-09-17T06:30:37.111Z,27.80
2022-09-17T06:36:39.458Z,30.50
2022-09-17T06:42:41.482Z,28.60
2022-09-17T06:48:43.629Z,27.20
2022-09-17T06:54:45.628Z,26.20
2022-09-17T07:00:48.108Z,26.10
2022-09-17T07:06:50.137Z,25.70
2022-09-17T07:12:52.690Z,25.20
2022-09-17T07:18:54.947Z,25.10
2022-09-17T07:24:57.042Z,25.00
2022-09-17T07:30:59.392Z,25.00
2022-09-17T07:37:01.648Z,25.10
2022-09-17T07:43:03.901Z,24.90
2022-09-17T07:49:06.112Z,24.90
2022-09-17T07:55:08.593Z,24.80
2022-09-17T08:01:12.189Z,25.00
2022-09-17T08:07:14.482Z,26.00
2022-09-17T08:13:16.698Z,26.50
2022-09-17T08:19:19.462Z,25.90
2022-09-17T08:25:21.767Z,25.90
2022-09-17T08:31:26.861Z,26.80
2022-09-17T08:37:32.569Z,27.50
2022-09-17T08:43:56.410Z,28.10
2022-09-17T08:50:01.615Z,30.90
2022-09-17T08:56:21.809Z,29.10
2022-09-17T09:02:40.816Z,29.60
2022-09-17T09:09:00.732Z,28.80
2022-09-17T09:15:08.344Z,28.40
2022-09-17T09:21:25.839Z,28.10
2022-09-17T09:27:29.427Z,28.30
2022-09-17T09:33:36.037Z,29.80
2022-09-17T09:39:45.877Z,29.20
2022-09-17T09:45:55.132Z,28.20
2022-09-17T09:52:19.325Z,27.70
2022-09-17T09:58:39.100Z,27.60
2022-09-17T10:04:41.250Z,27.10
2022-09-17T10:11:06.956Z,27.20
2022-09-17T10:17:26.540Z,27.50
2022-09-17T10:23:32.074Z,27.20
2022-09-17T10:29:35.022Z,27.10
2022-09-17T10:35:37.185Z,27.50
2022-09-17T10:41:57.882Z,27.20
2022-09-17T10:48:00.569Z,26.90
2022-09-17T10:54:23.804Z,26.40
2022-09-17T11:00:29.141Z,26.60
2022-09-17T11:07:01.889Z,26.50
2022-09-17T11:13:16.192Z,26.50
2022-09-17T11:19:30.652Z,26.30
2022-09-17T11:25:45.200Z,26.50
2022-09-17T11:32:03.617Z,26.90
2022-09-17T11:38:19.770Z,26.60
2022-09-17T11:44:31.844Z,26.30
2022-09-17T11:50:41.271Z,26.30
2022-09-17T11:56:46.559Z,26.40
2022-09-17T12:09:33.546Z,26.40
2022-09-17T12:15:39.532Z,26.60
2022-09-17T12:21:46.333Z,26.70
2022-09-17T12:28:00.721Z,26.50
2022-09-17T12:34:11.622Z,26.40
2022-09-17T12:40:24.425Z,26.20
2022-09-17T12:46:41.395Z,26.00
2022-09-17T12:52:54.368Z,25.80
2022-09-17T12:59:05.710Z,25.40
2022-09-17T13:05:45.603Z,25.40
2022-09-17T13:12:02.836Z,25.30
2022-09-17T13:18:27.399Z,25.30
2022-09-17T13:24:31.519Z,25.20
2022-09-17T13:31:09.329Z,25.60
2022-09-17T13:37:22.249Z,26.10
2022-09-17T13:43:28.071Z,26.40
2022-09-17T13:49:30.149Z,26.20
2022-09-17T13:55:36.111Z,25.90
2022-09-17T14:02:02.221Z,25.90
2022-09-17T14:08:13.712Z,25.80
2022-09-17T14:14:35.631Z,25.80
2022-09-17T14:20:37.901Z,25.80
2022-09-17T14:26:48.685Z,25.60
2022-09-17T14:33:19.555Z,25.30
2022-09-17T14:39:30.124Z,25.10
2022-09-17T14:45:42.858Z,25.00
2022-09-17T14:51:45.127Z,25.00
2022-09-17T14:57:52.093Z,24.80
2022-09-17T15:04:13.269Z,24.60
2022-09-17T15:10:17.986Z,24.40
2022-09-17T15:16:22.665Z,24.40
2022-09-17T15:22:40.269Z,24.40
2022-09-17T15:28:44.589Z,24.20
2022-09-17T15:35:19.458Z,24.20
2022-09-17T15:41:30.179Z,24.00
2022-09-17T15:47:50.480Z,23.90
2022-09-17T15:54:05.221Z,23.70
2022-09-17T16:00:16.779Z,23.70
2022-09-17T16:06:18.762Z,23.60
2022-09-17T16:12:25.203Z,23.50
2022-09-17T16:18:28.014Z,23.50
2022-09-17T16:24:30.355Z,23.40
2022-09-17T16:30:32.923Z,23.30
2022-09-17T16:36:35.734Z,23.10
2022-09-17T16:42:37.904Z,23.00
2022-09-17T16:48:41.306Z,22.90
2022-09-17T16:54:43.226Z,22.90
2022-09-17T17:00:45.938Z,22.80
2022-09-17T17:06:48.134Z,22.80
2022-09-17T17:12:50.325Z,22.80
2022-09-17T17:18:53.640Z,23.00
2022-09-17T17:24:55.601Z,23.00
2022-09-17T17:30:57.698Z,23.00
2022-09-17T17:36:59.998Z,23.00
2022-09-17T17:43:02.090Z,23.00
2022-09-17T17:49:04.268Z,23.00
2022-09-17T17:55:07.402Z,23.00
2022-09-17T18:01:29.681Z,22.90
2022-09-17T18:07:31.826Z,22.80
2022-09-17T18:13:38.107Z,22.80
2022-09-17T18:19:40.084Z,22.70
2022-09-17T18:25:42.107Z,22.70
2022-09-17T18:31:45.340Z,22.60
2022-09-17T18:37:47.479Z,22.60
2022-09-17T18:43:49.510Z,22.50
2022-09-17T18:49:51.503Z,22.40
2022-09-17T18:55:55.387Z,22.30
2022-09-17T19:01:57.558Z,22.30
2022-09-17T19:07:59.834Z,22.10
2022-09-17T19:14:01.791Z,22.10
2022-09-17T19:20:04.698Z,22.10
2022-09-17T19:26:07.884Z,21.90
2022-09-17T19:32:09.932Z,21.80
2022-09-17T19:38:15.234Z,21.70
2022-09-17T19:44:17.381Z,21.60
2022-09-17T19:50:19.437Z,21.60
2022-09-17T19:56:24.208Z,21.50
2022-09-17T20:02:26.271Z,21.50
2022-09-17T20:08:28.858Z,21.50
2022-09-17T20:14:31.092Z,21.40
2022-09-17T20:20:33.090Z,21.40
2022-09-17T20:26:36.066Z,21.50
2022-09-17T20:32:38.005Z,21.50
2022-09-17T20:45:02.121Z,21.40
2022-09-17T20:51:24.846Z,21.40
2022-09-17T20:57:26.927Z,21.40
2022-09-17T21:03:29.691Z,21.30
2022-09-17T21:09:31.972Z,21.40
2022-09-17T21:15:34.025Z,21.40
2022-09-17T21:21:36.064Z,21.40
2022-09-17T21:27:38.057Z,21.40
2022-09-17T21:33:41.417Z,21.40
2022-09-17T21:39:43.510Z,21.30
2022-09-17T21:45:45.714Z,21.30
2022-09-17T21:51:47.865Z,21.30
2022-09-17T21:57:50.045Z,21.30
2022-09-17T22:03:52.825Z,21.20
2022-09-17T22:09:55.014Z,21.20
2022-09-17T22:15:58.979Z,21.10
2022-09-17T22:22:01.347Z,21.00
2022-09-17T22:28:20.525Z,20.90
2022-09-17T22:34:23.866Z,20.80
2022-09-17T22:40:26.498Z,20.70
2022-09-17T22:46:31.360Z,20.60
2022-09-17T22:52:33.470Z,20.50
2022-09-17T22:58:36.320Z,20.50
2022-09-17T23:04:38.507Z,20.40
2022-09-17T23:10:41.995Z,20.20
2022-09-17T23:16:46.905Z,20.10
2022-09-17T23:22:49.106Z,20.10
2022-09-17T23:28:51.840Z,20.00
2022-09-17T23:34:54.022Z,19.90
2022-09-17T23:40:56.368Z,19.80
2022-09-17T23:46:59.086Z,19.60
2022-09-17T23:53:01.189Z,19.50
2022-09-17T23:59:03.513Z,19.50
